Time;durP1;ratioP1;P1;durP2;ratioP2;P2;SDS_P1;SDS_P2;PMS_P1;PMS_P2;Temp;Humidity;BMP_temperature;BMP_pressure;BME280_temperature;BME280_humidity;BME280_pressure;Samples;Min_cycle;Max_cycle;Signal;HPM_P1;HPM_P2
2023/04/20 00:01:10;;;;;;;8.23;7.43;;;;;;;9.15;36.50;102136.72;5091753;28;20099;-58
2023/04/20 00:03:36;;;;;;;8.73;7.93;;;;;;;8.87;37.15;102130.63;5098520;28;20439;-58
2023/04/20 00:06:02;;;;;;;8.80;7.93;;;;;;;8.73;37.30;102119.63;5110539;28;20049;-58
2023/04/20 00:08:28;;;;;;;9.00;8.18;;;;;;;8.65;37.14;102119.06;5107750;28;20048;-58
2023/04/20 00:10:53;;;;;;;8.57;7.55;;;;;;;8.72;37.43;102120.56;5098902;28;20030;-57
2023/04/20 00:13:19;;;;;;;9.95;7.72;;;;;;;8.65;37.28;102116.41;5091652;28;20020;-58
2023/04/20 00:15:44;;;;;;;9.20;7.47;;;;;;;8.60;38.00;102113.03;5088929;28;20027;-58
2023/04/20 00:18:10;;;;;;;12.60;8.18;;;;;;;8.61;37.69;102112.97;5093699;28;20028;-57
2023/04/20 00:20:35;;;;;;;9.40;8.48;;;;;;;8.55;38.24;102094.63;5091671;28;20027;-58
2023/04/20 00:23:01;;;;;;;9.02;8.13;;;;;;;8.62;38.07;102100.59;5104913;28;20462;-57
2023/04/20 00:25:28;;;;;;;12.63;8.18;;;;;;;8.61;37.59;102098.84;5110309;28;20046;-57
2023/04/20 00:27:56;;;;;;;7.15;6.55;;;;;;;8.64;37.34;102096.09;5102904;28;20153;-57
2023/04/20 00:30:21;;;;;;;11.48;7.60;;;;;;;8.52;37.87;102088.56;5098592;28;20023;-58
2023/04/20 00:32:47;;;;;;;10.85;7.38;;;;;;;8.72;37.34;102090.53;5091889;28;20024;-58
2023/04/20 00:35:15;;;;;;;8.73;7.93;;;;;;;8.56;37.00;102072.50;5092023;28;20094;-58
2023/04/20 00:37:40;;;;;;;9.20;7.95;;;;;;;8.64;37.56;102083.69;5091745;28;20035;-58
2023/04/20 00:40:06;;;;;;;8.40;7.70;;;;;;;8.64;36.90;102070.44;5091382;28;20383;-58
2023/04/20 00:42:31;;;;;;;8.18;7.45;;;;;;;8.81;37.02;102068.97;5095432;28;20043;-58
2023/04/20 00:44:57;;;;;;;10.70;7.78;;;;;;;8.63;37.06;102066.06;5091216;28;20030;-58
2023/04/20 00:47:22;;;;;;;9.57;7.55;;;;;;;8.76;36.69;102065.59;5091176;28;20031;-58
2023/04/20 00:49:48;;;;;;;8.05;7.32;;;;;;;8.53;37.32;102056.69;5090774;28;20038;-58
2023/04/20 00:52:13;;;;;;;11.18;8.05;;;;;;;8.53;37.62;102059.34;5088460;28;20447;-58
2023/04/20 00:54:39;;;;;;;8.90;8.10;;;;;;;8.35;38.20;102060.81;5091336;28;20024;-58
2023/04/20 00:57:05;;;;;;;9.80;7.97;;;;;;;8.27;38.29;102054.06;5091594;28;20042;-58
2023/04/20 00:59:31;;;;;;;8.85;7.93;;;;;;;8.33;38.16;102046.75;5091139;28;20024;-57
2023/04/20 01:01:57;;;;;;;8.90;8.05;;;;;;;8.32;37.85;102044.13;5090029;28;20020;-57
2023/04/20 01:04:23;;;;;;;9.48;8.68;;;;;;;8.24;38.38;102043.56;5091339;28;20540;-57
2023/04/20 01:06:48;;;;;;;9.52;8.13;;;;;;;8.21;39.07;102036.56;5089605;28;20059;-57
2023/04/20 01:09:13;;;;;;;10.95;8.60;;;;;;;8.17;39.00;102027.84;5091279;28;20016;-57
2023/04/20 01:11:39;;;;;;;9.07;8.20;;;;;;;8.05;39.35;102022.97;5090165;28;20222;-58
2023/04/20 01:14:04;;;;;;;8.55;7.68;;;;;;;8.02;39.17;102030.16;5090059;28;20024;-58
2023/04/20 01:16:30;;;;;;;9.63;7.65;;;;;;;7.95;39.74;102022.41;5091307;28;20053;-57
2023/04/20 01:18:56;;;;;;;8.73;7.65;;;;;;;7.92;39.83;102021.66;5091198;28;20154;-57
2023/04/20 01:21:22;;;;;;;10.00;7.63;;;;;;;8.16;39.19;102019.97;5090861;28;20429;-58
2023/04/20 01:23:47;;;;;;;8.38;7.45;;;;;;;7.99;40.20;102009.06;5091535;28;20024;-57
2023/04/20 01:26:18;;;;;;;9.18;7.63;;;;;;;8.17;39.09;102005.78;5110558;28;20031;-61
2023/04/20 01:28:44;;;;;;;8.20;7.40;;;;;;;8.02;40.08;102006.31;5094810;28;20394;-57
2023/04/20 01:31:11;;;;;;;8.43;7.63;;;;;;;7.85;40.88;102009.50;5093643;28;20455;-57
2023/04/20 01:33:36;;;;;;;8.70;7.80;;;;;;;7.82;40.75;101996.38;5093505;28;20411;-57
2023/04/20 01:36:03;;;;;;;8.48;7.70;;;;;;;8.04;40.13;101999.19;5094054;28;20034;-58
2023/04/20 01:38:33;;;;;;;9.38;7.78;;;;;;;7.90;39.96;101989.91;5093078;28;20038;-58
2023/04/20 01:41:00;;;;;;;8.50;7.80;;;;;;;7.87;40.25;101989.16;5103174;28;20023;-57
2023/04/20 01:43:28;;;;;;;9.27;7.43;;;;;;;7.63;41.14;101986.38;5102925;28;20027;-57
2023/04/20 01:45:54;;;;;;;9.90;8.13;;;;;;;7.65;41.05;101978.41;5092930;28;20118;-57
2023/04/20 01:48:19;;;;;;;8.68;7.88;;;;;;;7.62;41.63;101984.66;5093214;28;20062;-57
2023/04/20 01:50:44;;;;;;;10.77;7.90;;;;;;;7.69;41.30;101982.69;5093056;28;20028;-57
2023/04/20 01:53:12;;;;;;;8.32;7.63;;;;;;;7.68;40.54;101965.94;5093848;28;20024;-57
2023/04/20 01:55:37;;;;;;;9.55;7.95;;;;;;;7.65;41.26;101968.69;5094222;28;20455;-57
2023/04/20 01:58:03;;;;;;;8.60;7.53;;;;;;;7.85;41.62;101964.47;5094140;28;20085;-58
2023/04/20 02:00:28;;;;;;;9.20;8.32;;;;;;;7.84;41.33;101960.13;5094182;28;20024;-58
2023/04/20 02:02:54;;;;;;;9.10;7.28;;;;;;;7.60;41.98;101954.72;5094091;28;20031;-57
2023/04/20 02:05:20;;;;;;;10.75;8.05;;;;;;;7.77;41.07;101954.16;5094109;28;20384;-57
2023/04/20 02:07:45;;;;;;;8.60;7.85;;;;;;;7.81;41.24;101950.47;5091617;28;20051;-57
2023/04/20 02:10:10;;;;;;;9.63;7.82;;;;;;;7.77;41.70;101954.16;5100934;28;20024;-57
2023/04/20 02:12:38;;;;;;;8.82;8.13;;;;;;;7.51;42.30;101944.44;5113217;28;20031;-57
2023/04/20 02:15:05;;;;;;;7.93;7.22;;;;;;;7.49;42.73;101933.03;5108325;28;20031;-57
2023/04/20 02:17:33;;;;;;;8.35;7.65;;;;;;;7.36;42.74;101934.34;5110646;28;20554;-57
2023/04/20 02:19:58;;;;;;;8.18;6.05;;;;;;;7.43;43.19;101931.44;5113070;28;20034;-57
2023/04/20 02:22:23;;;;;;;8.48;7.78;;;;;;;7.23;42.81;101931.22;5110462;28;20027;-57
2023/04/20 02:24:49;;;;;;;10.20;7.50;;;;;;;7.17;42.72;101924.31;5108852;28;20532;-58
2023/04/20 02:27:14;;;;;;;9.32;7.65;;;;;;;7.00;43.48;101927.53;5111724;28;20063;-57
2023/04/20 02:29:40;;;;;;;5.93;5.32;;;;;;;7.09;44.06;101917.53;5112312;28;20050;-57
2023/04/20 02:32:06;;;;;;;10.48;7.43;;;;;;;7.15;44.07;101907.66;5112941;28;20051;-57
2023/04/20 02:34:32;;;;;;;7.85;6.15;;;;;;;7.16;43.85;101917.31;5108826;28;20031;-57
2023/04/20 02:36:59;;;;;;;11.60;7.90;;;;;;;6.80;44.12;101904.31;5111973;28;20039;-57
2023/04/20 02:39:27;;;;;;;9.60;6.70;;;;;;;7.00;44.91;101918.69;5102927;27;20028;-57
2023/04/20 02:41:52;;;;;;;8.55;7.65;;;;;;;6.82;45.31;101910.44;5101618;28;20038;-57
2023/04/20 02:44:18;;;;;;;8.80;8.00;;;;;;;6.96;44.66;101911.78;5110737;28;20032;-57
2023/04/20 02:46:45;;;;;;;7.32;5.72;;;;;;;7.05;45.85;101909.72;5104129;28;20059;-58
2023/04/20 02:49:14;;;;;;;8.98;8.10;;;;;;;7.02;45.53;101908.94;5113232;28;20395;-57
2023/04/20 02:51:39;;;;;;;6.95;6.13;;;;;;;7.18;45.03;101907.56;5111431;28;20050;-57
2023/04/20 02:54:05;;;;;;;8.73;7.22;;;;;;;7.09;45.25;101901.66;5109841;28;20037;-57
2023/04/20 02:56:30;;;;;;;7.60;6.03;;;;;;;7.05;46.02;101899.13;5110863;28;20409;-57
2023/04/20 02:58:55;;;;;;;9.52;8.63;;;;;;;6.86;46.24;101899.78;5110914;28;20035;-57
2023/04/20 03:01:21;;;;;;;7.80;7.00;;;;;;;6.98;46.07;101907.31;5110055;28;20062;-58
2023/04/20 03:03:46;;;;;;;11.95;8.70;;;;;;;6.95;46.57;101905.63;5113415;28;20024;-58
2023/04/20 03:06:12;;;;;;;9.00;6.78;;;;;;;7.14;46.85;101892.69;5110329;28;20031;-58
2023/04/20 03:08:37;;;;;;;8.10;6.25;;;;;;;7.17;47.31;101899.66;5110607;28;20072;-58
2023/04/20 03:11:02;;;;;;;7.18;6.47;;;;;;;7.22;46.39;101885.38;5110723;28;20031;-58
2023/04/20 03:13:30;;;;;;;9.35;8.05;;;;;;;7.30;46.70;101889.56;5113239;28;20398;-57
2023/04/20 03:15:56;;;;;;;10.77;8.73;;;;;;;7.01;47.94;101872.84;5111896;28;20046;-57
2023/04/20 03:18:21;;;;;;;8.35;6.25;;;;;;;7.07;47.82;101867.34;5108012;28;20024;-58
2023/04/20 03:20:46;;;;;;;8.77;6.43;;;;;;;7.05;47.71;101875.31;5093389;28;20020;-57
2023/04/20 03:23:12;;;;;;;6.82;6.13;;;;;;;7.02;48.57;101867.47;5091295;28;20031;-57
2023/04/20 03:25:37;;;;;;;10.30;8.30;;;;;;;6.93;49.42;101861.63;5091442;28;20031;-57
2023/04/20 03:28:03;;;;;;;8.77;7.05;;;;;;;7.03;49.31;101868.38;5092472;28;20035;-57
2023/04/20 03:30:28;;;;;;;9.55;7.25;;;;;;;6.99;49.64;101864.06;5091413;28;20028;-57
2023/04/20 03:32:54;;;;;;;9.27;8.38;;;;;;;6.94;49.94;101858.06;5091126;28;20020;-58
2023/04/20 03:35:19;;;;;;;8.07;6.90;;;;;;;7.05;49.82;101870.03;5092024;28;20055;-57
2023/04/20 03:37:45;;;;;;;9.35;8.38;;;;;;;6.95;50.63;101860.66;5090425;28;20028;-57
2023/04/20 03:40:11;;;;;;;14.35;6.80;;;;;;;7.10;49.80;101861.97;5091236;28;20111;-57
2023/04/20 03:42:37;;;;;;;9.70;8.85;;;;;;;6.91;50.93;101861.69;5092044;28;20032;-57
2023/04/20 03:45:05;;;;;;;8.27;7.43;;;;;;;6.96;51.26;101846.53;5094526;28;20073;-58
2023/04/20 03:47:30;;;;;;;10.57;7.03;;;;;;;6.87;51.43;101841.53;5089971;28;20032;-57
2023/04/20 03:49:56;;;;;;;9.82;8.93;;;;;;;6.93;51.68;101846.63;5093966;28;20031;-57
2023/04/20 03:52:21;;;;;;;10.80;7.57;;;;;;;6.91;52.09;101850.22;5089916;28;20046;-58
2023/04/20 03:54:47;;;;;;;8.38;7.78;;;;;;;6.98;51.87;101854.44;5092036;28;20052;-58
2023/04/20 03:57:12;;;;;;;8.23;7.43;;;;;;;7.18;51.28;101853.78;5092040;28;20032;-57
2023/04/20 03:59:37;;;;;;;9.90;8.88;;;;;;;7.13;52.50;101843.34;5092249;28;20035;-57
2023/04/20 04:02:06;;;;;;;8.32;7.40;;;;;;;7.20;51.79;101833.41;5091961;28;20028;-57
2023/04/20 04:04:31;;;;;;;9.80;8.90;;;;;;;7.25;52.40;101844.72;5091961;28;20035;-58
2023/04/20 04:06:57;;;;;;;8.25;6.35;;;;;;;7.35;52.02;101848.78;5089798;28;20044;-58
2023/04/20 04:09:25;;;;;;;9.55;8.07;;;;;;;7.31;52.45;101841.00;5091930;28;20050;-58
2023/04/20 04:11:53;;;;;;;9.10;8.30;;;;;;;7.39;52.55;101834.53;5091783;28;20032;-58
2023/04/20 04:14:18;;;;;;;7.13;6.43;;;;;;;7.41;52.70;101837.13;5092092;28;20050;-58
2023/04/20 04:16:43;;;;;;;11.63;9.10;;;;;;;7.33;53.23;101836.53;5091748;28;20467;-57
2023/04/20 04:19:11;;;;;;;8.75;7.10;;;;;;;7.47;52.58;101832.50;5091847;28;20111;-57
2023/04/20 04:21:36;;;;;;;10.23;8.98;;;;;;;7.42;53.29;101833.56;5092993;28;20024;-57
2023/04/20 04:24:02;;;;;;;8.68;7.82;;;;;;;7.50;53.26;101828.91;5092324;28;20506;-57
2023/04/20 04:26:28;;;;;;;9.07;8.18;;;;;;;7.30;53.49;101805.75;5090286;28;20024;-57
2023/04/20 04:28:54;;;;;;;8.52;7.82;;;;;;;7.49;53.52;101812.13;5091735;28;20153;-57
2023/04/20 04:31:20;;;;;;;12.30;9.73;;;;;;;7.42;53.93;101813.25;5091701;28;20062;-58
2023/04/20 04:33:46;;;;;;;10.05;9.05;;;;;;;7.33;54.21;101796.84;5090355;28;20034;-57
2023/04/20 04:36:14;;;;;;;9.85;8.85;;;;;;;7.27;54.63;101788.19;5091262;28;20032;-57
2023/04/20 04:38:43;;;;;;;7.78;7.07;;;;;;;7.40;54.45;101793.91;5091982;28;20020;-58
2023/04/20 04:41:08;;;;;;;8.47;7.63;;;;;;;7.35;54.40;101777.31;5091806;28;20032;-57
2023/04/20 04:43:36;;;;;;;12.65;8.80;;;;;;;7.43;54.49;101782.38;5091646;28;20069;-57
2023/04/20 04:46:08;;;;;;;10.68;7.05;;;;;;;7.60;54.91;101782.63;5090073;28;20031;-58
2023/04/20 04:48:34;;;;;;;9.90;9.00;;;;;;;7.51;55.17;101786.47;5091528;28;20019;-58
2023/04/20 04:51:00;;;;;;;9.73;8.82;;;;;;;7.59;55.02;101778.28;5089795;28;20028;-58
2023/04/20 04:53:25;;;;;;;9.55;8.52;;;;;;;7.68;55.10;101779.72;5090580;28;20029;-57
2023/04/20 04:55:56;;;;;;;9.82;8.98;;;;;;;7.62;55.39;101774.66;5073415;28;20028;-57
2023/04/20 04:58:24;;;;;;;9.27;8.40;;;;;;;7.76;55.45;101780.28;5092917;28;20050;-58
2023/04/20 05:00:50;;;;;;;10.15;8.77;;;;;;;7.63;56.20;101760.50;5094805;28;20115;-58
2023/04/20 05:03:15;;;;;;;9.40;8.50;;;;;;;7.57;56.30;101768.66;5093968;28;20109;-58
2023/04/20 05:05:41;;;;;;;9.68;8.85;;;;;;;7.60;56.13;101773.84;5095497;28;20111;-58
2023/04/20 05:08:06;;;;;;;12.10;9.38;;;;;;;7.56;56.98;101762.50;5093187;28;20052;-57
2023/04/20 05:10:32;;;;;;;7.85;7.15;;;;;;;7.66;57.30;101774.47;5098037;28;20042;-58
2023/04/20 05:12:58;;;;;;;10.60;9.60;;;;;;;7.69;57.32;101778.78;5094465;28;20028;-57
2023/04/20 05:15:24;;;;;;;10.98;9.85;;;;;;;7.73;56.58;101768.06;5098072;28;20020;-57
2023/04/20 05:17:51;;;;;;;10.95;8.88;;;;;;;7.70;57.08;101767.28;5094496;28;20372;-58
2023/04/20 05:20:21;;;;;;;10.40;9.32;;;;;;;7.78;56.93;101761.72;5095635;28;20040;-57
2023/04/20 05:22:46;;;;;;;10.57;9.30;;;;;;;7.75;58.63;101770.63;5094482;28;20093;-57
2023/04/20 05:25:11;;;;;;;8.80;7.82;;;;;;;7.90;59.08;101770.06;5095102;28;20462;-57
2023/04/20 05:27:37;;;;;;;12.18;9.82;;;;;;;7.86;59.21;101770.25;5093571;28;20086;-57
2023/04/20 05:30:06;;;;;;;12.18;9.43;;;;;;;7.77;60.40;101766.16;5093307;28;20467;-57
2023/04/20 05:32:31;;;;;;;12.38;8.15;;;;;;;7.78;59.12;101770.50;5104219;28;20028;-57
2023/04/20 05:34:57;;;;;;;10.13;9.32;;;;;;;7.79;59.31;101764.28;5102630;28;20107;-57
2023/04/20 05:37:22;;;;;;;10.48;9.48;;;;;;;7.70;60.10;101772.56;5094173;28;20027;-57
2023/04/20 05:39:48;;;;;;;9.30;8.32;;;;;;;7.80;59.10;101767.81;5097010;28;20034;-57
2023/04/20 05:42:13;;;;;;;10.65;9.40;;;;;;;7.75;59.54;101765.34;5095823;28;20413;-57
2023/04/20 05:44:40;;;;;;;11.05;9.07;;;;;;;7.84;58.08;101770.28;5093162;28;20016;-57
2023/04/20 05:47:08;;;;;;;10.02;9.02;;;;;;;7.92;57.82;101762.06;5094012;28;20031;-57
2023/04/20 05:49:35;;;;;;;11.32;10.32;;;;;;;7.91;58.38;101763.84;5094426;28;20020;-57
2023/04/20 05:52:03;;;;;;;12.95;9.93;;;;;;;7.95;57.82;101746.06;5092334;28;20028;-57
2023/04/20 05:54:28;;;;;;;10.35;9.45;;;;;;;7.97;58.42;101755.69;5093020;28;20060;-57
2023/04/20 05:56:54;;;;;;;11.73;9.85;;;;;;;8.06;57.48;101761.53;5096101;28;20024;-57
2023/04/20 05:59:20;;;;;;;11.27;10.15;;;;;;;7.96;57.38;101742.47;5099423;28;20095;-57
2023/04/20 06:01:46;;;;;;;11.50;9.45;;;;;;;8.04;57.76;101758.09;5110761;28;20368;-57
2023/04/20 06:04:11;;;;;;;10.90;9.80;;;;;;;8.00;58.31;101764.41;5108656;28;20030;-58
2023/04/20 06:06:37;;;;;;;11.00;9.90;;;;;;;7.99;58.41;101752.09;5110953;28;20015;-57
2023/04/20 06:09:03;;;;;;;10.25;9.30;;;;;;;8.00;57.86;101757.34;5112991;28;20059;-57
2023/04/20 06:11:29;;;;;;;11.10;10.00;;;;;;;8.00;57.73;101743.22;5112419;28;20031;-57
2023/04/20 06:13:54;;;;;;;13.52;10.30;;;;;;;8.10;58.34;101758.72;5112275;28;20096;-57
2023/04/20 06:16:22;;;;;;;11.32;10.30;;;;;;;8.09;57.61;101740.22;5110833;28;20478;-58
2023/04/20 06:18:48;;;;;;;12.18;10.32;;;;;;;8.24;58.08;101757.34;5114147;28;20156;-58
2023/04/20 06:21:14;;;;;;;10.73;9.70;;;;;;;8.34;57.90;101754.25;5111893;28;20478;-58
2023/04/20 06:23:41;;;;;;;10.88;9.77;;;;;;;8.18;57.90;101751.34;5106659;28;20023;-58
2023/04/20 06:26:08;;;;;;;11.00;9.93;;;;;;;8.12;59.42;101751.59;5093371;28;20039;-58
2023/04/20 06:28:36;;;;;;;13.48;10.70;;;;;;;8.14;58.37;101730.31;5093369;28;20012;-58
2023/04/20 06:31:04;;;;;;;11.30;10.05;;;;;;;8.20;59.20;101741.53;5093523;28;20024;-57
2023/04/20 06:33:30;;;;;;;11.85;10.60;;;;;;;8.13;59.15;101732.09;5101015;28;20011;-58
2023/04/20 06:35:56;;;;;;;11.50;10.60;;;;;;;8.25;58.92;101745.81;5110777;28;20073;-57
2023/04/20 06:38:22;;;;;;;14.52;10.00;;;;;;;8.34;59.51;101734.84;5113866;28;20020;-58
2023/04/20 06:40:48;;;;;;;11.43;10.35;;;;;;;8.46;58.24;101734.38;5112370;28;20031;-58
2023/04/20 06:43:13;;;;;;;11.40;10.10;;;;;;;8.44;58.45;101727.41;5108039;28;20424;-58
2023/04/20 06:45:39;;;;;;;10.95;9.93;;;;;;;8.48;58.81;101734.34;5109455;28;20025;-58
2023/04/20 06:48:05;;;;;;;11.85;10.68;;;;;;;8.33;59.42;101722.53;5093218;28;20383;-59
2023/04/20 06:50:30;;;;;;;12.05;10.85;;;;;;;8.37;59.23;101724.13;5093190;28;20086;-58
2023/04/20 06:52:56;;;;;;;11.55;10.55;;;;;;;8.38;58.71;101729.41;5092732;28;20058;-58
2023/04/20 06:55:21;;;;;;;13.13;11.20;;;;;;;8.30;59.29;101738.56;5093296;28;20103;-58
2023/04/20 06:57:46;;;;;;;11.68;10.63;;;;;;;8.28;58.23;101733.28;5092650;28;20028;-59
2023/04/20 07:00:12;;;;;;;13.10;10.95;;;;;;;8.29;58.29;101720.91;5093184;28;20016;-58
2023/04/20 07:02:46;;;;;;;12.32;10.88;;;;;;;8.27;58.25;101736.88;5091845;28;20020;-58
2023/04/20 07:05:12;;;;;;;11.68;10.60;;;;;;;8.22;58.90;101720.28;5093099;28;20432;-58
2023/04/20 07:07:38;;;;;;;11.98;10.80;;;;;;;8.24;58.48;101723.75;5091103;28;20531;-58
2023/04/20 07:10:07;;;;;;;13.18;10.73;;;;;;;8.27;58.24;101731.56;5092783;28;20059;-58
2023/04/20 07:12:34;;;;;;;13.40;12.15;;;;;;;8.29;58.80;101726.19;5091100;28;20040;-58
2023/04/20 07:15:03;;;;;;;13.55;11.45;;;;;;;8.22;59.19;101722.94;5091398;28;20020;-58
2023/04/20 07:17:29;;;;;;;10.73;9.73;;;;;;;8.23;58.53;101718.50;5092624;28;20027;-58
2023/04/20 07:19:55;;;;;;;11.48;10.43;;;;;;;8.29;58.81;101719.09;5091288;28;20031;-58
2023/04/20 07:22:21;;;;;;;14.02;10.73;;;;;;;8.20;58.44;101730.06;5091155;28;20028;-58
2023/04/20 07:24:46;;;;;;;12.95;10.98;;;;;;;8.12;58.80;101708.34;5091217;28;20100;-58
2023/04/20 07:27:12;;;;;;;11.75;10.70;;;;;;;8.14;59.20;101725.00;5092392;28;20070;-58
2023/04/20 07:29:37;;;;;;;12.25;11.02;;;;;;;8.13;59.38;101726.81;5091397;28;20026;-58
2023/04/20 07:32:03;;;;;;;11.20;10.20;;;;;;;8.18;59.48;101731.94;5091252;28;20028;-58
2023/04/20 07:34:28;;;;;;;12.95;10.95;;;;;;;8.12;59.99;101733.03;5092550;28;20031;-58
2023/04/20 07:36:54;;;;;;;11.70;10.60;;;;;;;8.19;59.81;101725.72;5091943;28;20581;-58
2023/04/20 07:39:19;;;;;;;11.57;8.48;;;;;;;8.23;59.22;101729.09;5092359;28;20115;-59
2023/04/20 07:41:44;;;;;;;11.50;9.57;;;;;;;8.20;59.57;101733.56;5091849;28;20035;-59
2023/04/20 07:44:14;;;;;;;10.65;9.63;;;;;;;8.34;59.17;101733.06;5091219;28;20031;-59
2023/04/20 07:46:41;;;;;;;9.35;8.40;;;;;;;8.37;59.20;101724.97;5090797;28;20471;-59
2023/04/20 07:49:07;;;;;;;11.10;10.13;;;;;;;8.19;60.07;101726.56;5090931;28;20055;-59
2023/04/20 07:51:33;;;;;;;11.30;10.27;;;;;;;8.22;60.19;101727.38;5091578;28;20055;-59
2023/04/20 07:53:59;;;;;;;12.18;10.88;;;;;;;8.23;59.65;101721.16;5091898;28;20024;-59
2023/04/20 07:56:24;;;;;;;11.30;10.13;;;;;;;8.35;59.79;101726.84;5090558;28;20024;-60
2023/04/20 07:58:50;;;;;;;11.23;10.07;;;;;;;8.43;59.79;101720.41;5092035;28;20028;-60
2023/04/20 08:01:15;;;;;;;12.77;10.15;;;;;;;8.62;59.86;101727.56;5092104;28;20103;-60
2023/04/20 08:03:41;;;;;;;12.38;10.45;;;;;;;8.69;58.90;101724.66;5091120;28;20055;-59
2023/04/20 08:06:06;;;;;;;10.80;9.80;;;;;;;8.70;59.16;101721.91;5090260;28;20026;-59
2023/04/20 08:08:32;;;;;;;13.45;8.98;;;;;;;8.81;59.06;101729.44;5090338;28;20048;-59
2023/04/20 08:10:57;;;;;;;10.57;9.50;;;;;;;8.85;58.86;101721.31;5091843;28;20032;-60
2023/04/20 08:13:23;;;;;;;10.98;9.93;;;;;;;8.76;58.64;101729.63;5091986;28;20016;-60
2023/04/20 08:15:48;;;;;;;10.57;9.57;;;;;;;8.74;58.46;101727.97;5091765;28;20020;-60
2023/04/20 08:18:14;;;;;;;10.95;9.82;;;;;;;8.77;58.98;101711.94;5090560;28;20359;-60
2023/04/20 08:20:39;;;;;;;13.88;9.93;;;;;;;8.80;58.83;101703.84;5092006;28;20544;-59
2023/04/20 08:23:05;;;;;;;10.40;9.40;;;;;;;8.87;59.08;101702.66;5091247;28;20051;-60
2023/04/20 08:25:31;;;;;;;12.40;9.73;;;;;;;8.92;58.56;101702.47;5091717;28;20031;-60
2023/04/20 08:27:59;;;;;;;10.50;8.52;;;;;;;9.02;58.34;101704.66;5090344;28;20088;-60
2023/04/20 08:30:26;;;;;;;10.55;9.50;;;;;;;9.06;59.15;101697.44;5091843;28;20016;-60
2023/04/20 08:32:51;;;;;;;11.75;9.73;;;;;;;9.13;58.75;101701.53;5092414;28;20078;-60
2023/04/20 08:35:16;;;;;;;12.60;9.75;;;;;;;9.27;58.65;101693.00;5096047;28;20471;-60
2023/04/20 08:37:42;;;;;;;11.63;9.27;;;;;;;9.27;58.63;101682.38;5095437;28;20024;-60
2023/04/20 08:40:08;;;;;;;9.60;8.55;;;;;;;9.37;58.61;101685.47;5111317;28;20028;-60
2023/04/20 08:42:34;;;;;;;9.80;9.02;;;;;;;9.38;57.81;101682.72;5094447;28;20418;-59
2023/04/20 08:45:00;;;;;;;10.45;9.35;;;;;;;9.26;58.04;101681.47;5095766;28;20027;-60
2023/04/20 08:47:26;;;;;;;9.82;9.10;;;;;;;9.40;58.81;101666.75;5095624;28;20077;-59
2023/04/20 08:49:53;;;;;;;9.77;8.90;;;;;;;9.51;58.05;101683.06;5095698;28;20031;-59
2023/04/20 08:52:19;;;;;;;9.88;8.85;;;;;;;9.44;57.69;101678.94;5093597;28;20112;-60
2023/04/20 08:54:44;;;;;;;10.15;9.07;;;;;;;9.38;57.47;101677.41;5094241;28;20028;-60
2023/04/20 08:57:10;;;;;;;10.13;9.18;;;;;;;9.38;57.70;101669.44;5095584;28;20065;-60
2023/04/20 08:59:37;;;;;;;13.70;9.30;;;;;;;9.50;58.39;101674.25;5095448;28;20096;-60
2023/04/20 09:02:13;;;;;;;10.05;9.05;;;;;;;9.55;58.02;101672.22;5095273;28;20390;-60
2023/04/20 09:04:39;;;;;;;10.52;8.40;;;;;;;9.78;56.25;101673.81;5095655;28;20031;-60
2023/04/20 09:07:05;;;;;;;9.43;8.52;;;;;;;10.38;56.83;101672.78;5094542;28;20024;-60
2023/04/20 09:09:31;;;;;;;9.82;8.85;;;;;;;10.54;56.05;101672.91;5093926;28;20066;-60
2023/04/20 09:12:05;;;;;;;10.02;9.05;;;;;;;10.67;55.67;101669.53;5093779;28;20493;-60
2023/04/20 09:14:44;;;;;;;8.90;8.20;;;;;;;10.76;54.91;101667.38;5094082;28;20375;-60
2023/04/20 09:17:13;;;;;;;9.33;8.43;;;;;;;10.63;55.11;101667.13;5093997;28;20470;-60
2023/04/20 09:19:40;;;;;;;9.38;8.57;;;;;;;10.44;54.50;101680.47;5095259;28;20023;-60
2023/04/20 09:22:05;;;;;;;11.45;7.43;;;;;;;10.32;54.61;101676.59;5094165;28;20107;-60
2023/04/20 09:24:41;;;;;;;8.30;7.53;;;;;;;10.20;55.69;101674.50;5093803;28;20427;-60
2023/04/20 09:27:15;;;;;;;8.88;8.02;;;;;;;10.18;55.27;101682.59;5093502;28;20111;-60
2023/04/20 09:29:40;;;;;;;8.52;7.72;;;;;;;10.23;54.87;101675.25;5095039;28;20406;-60
2023/04/20 09:32:06;;;;;;;8.93;8.13;;;;;;;10.37;55.87;101669.28;5094510;28;20050;-60
2023/04/20 09:34:42;;;;;;;8.45;7.85;;;;;;;10.45;54.49;101661.78;5094854;28;20353;-60
2023/04/20 09:37:09;;;;;;;8.65;7.88;;;;;;;10.46;54.33;101675.94;5094196;28;20020;-60
2023/04/20 09:39:41;;;;;;;9.18;8.18;;;;;;;10.22;54.17;101680.63;5099276;28;20500;-60
2023/04/20 09:42:11;;;;;;;9.48;8.50;;;;;;;10.25;54.18;101669.84;5097909;28;20026;-60
2023/04/20 09:44:40;;;;;;;9.00;8.20;;;;;;;10.30;54.41;101674.97;5105767;28;20024;-60
2023/04/20 09:47:07;;;;;;;9.50;8.68;;;;;;;10.31;53.96;101666.06;5107206;28;20035;-59
2023/04/20 09:49:33;;;;;;;9.43;8.63;;;;;;;10.35;53.73;101660.53;5096804;28;20031;-60
2023/04/20 09:52:03;;;;;;;8.73;8.07;;;;;;;10.53;54.29;101671.16;5093497;28;20028;-60
2023/04/20 09:54:28;;;;;;;8.80;8.00;;;;;;;10.40;52.82;101647.00;5094994;28;20040;-60
2023/04/20 09:56:54;;;;;;;8.90;8.13;;;;;;;10.62;52.19;101645.00;5092775;28;20405;-60
2023/04/20 09:59:20;;;;;;;8.43;7.82;;;;;;;10.88;51.36;101643.66;5076440;28;20027;-60
2023/04/20 10:01:46;;;;;;;8.13;7.43;;;;;;;11.22;50.56;101617.06;5094105;28;20050;-60
2023/04/20 10:04:13;;;;;;;9.50;8.30;;;;;;;11.65;51.61;101630.72;5095147;28;20035;-60
2023/04/20 10:06:50;;;;;;;8.63;7.90;;;;;;;11.84;51.89;101620.75;5109375;28;20024;-60
2023/04/20 10:09:22;;;;;;;10.07;8.18;;;;;;;11.98;51.40;101625.34;5108739;28;20082;-60
2023/04/20 10:11:47;;;;;;;10.68;8.02;;;;;;;11.86;51.33;101632.25;5088214;28;20035;-60
2023/04/20 10:14:23;;;;;;;10.25;8.05;;;;;;;11.73;50.88;101625.81;5092545;28;20016;-60
2023/04/20 10:17:03;;;;;;;8.27;7.60;;;;;;;11.48;51.90;101624.50;5097197;28;20206;-60
2023/04/20 10:19:40;;;;;;;8.95;7.45;;;;;;;11.38;50.22;101639.25;5092078;28;20012;-60
2023/04/20 10:22:07;;;;;;;9.32;8.38;;;;;;;11.01;50.62;101619.06;5094993;28;20490;-60
2023/04/20 10:24:39;;;;;;;8.38;7.75;;;;;;;10.77;51.42;101631.84;5093256;28;20059;-60
2023/04/20 10:27:20;;;;;;;8.65;7.93;;;;;;;10.70;52.43;101628.63;5092982;28;20074;-60
2023/04/20 10:29:46;;;;;;;9.00;7.80;;;;;;;10.50;53.06;101645.63;5092964;28;20019;-60
2023/04/20 10:32:22;;;;;;;8.80;8.05;;;;;;;10.46;53.60;101633.38;5092829;28;20020;-60
2023/04/20 10:34:47;;;;;;;8.70;7.90;;;;;;;10.30;52.88;101630.63;5091595;28;20023;-60
2023/04/20 10:37:13;;;;;;;10.52;8.77;;;;;;;10.24;54.16;101637.09;5107320;28;20027;-60
2023/04/20 10:39:46;;;;;;;9.45;8.52;;;;;;;10.31;55.18;101621.72;5091829;28;20015;-60
2023/04/20 10:42:15;;;;;;;10.13;8.77;;;;;;;10.36;56.10;101621.50;5096871;28;20111;-60
2023/04/20 10:44:50;;;;;;;8.93;8.23;;;;;;;10.41;56.09;101609.69;5095951;28;20065;-60
2023/04/20 10:47:17;;;;;;;9.45;8.85;;;;;;;10.78;54.51;101609.63;5092599;28;20074;-60
2023/04/20 10:49:43;;;;;;;8.93;8.23;;;;;;;11.43;53.56;101610.56;5093395;28;20024;-61
2023/04/20 10:52:09;;;;;;;9.43;8.73;;;;;;;11.86;52.26;101608.25;5097908;28;20394;-60
2023/04/20 10:54:39;;;;;;;8.73;8.00;;;;;;;11.74;51.11;101612.44;5106974;28;20040;-60
2023/04/20 10:57:05;;;;;;;9.20;8.50;;;;;;;11.82;50.58;101611.97;5092020;28;20032;-60
2023/04/20 10:59:36;;;;;;;9.35;8.55;;;;;;;11.79;51.13;101609.47;5091537;28;20103;-60
2023/04/20 11:02:06;;;;;;;9.40;8.63;;;;;;;11.77;50.53;101600.75;5092153;28;20036;-61
2023/04/20 11:04:34;;;;;;;9.85;8.95;;;;;;;12.03;51.00;101604.63;5091339;28;20056;-60
2023/04/20 11:07:12;;;;;;;9.48;8.73;;;;;;;11.96;51.35;101604.09;5090947;28;20103;-60
2023/04/20 11:09:38;;;;;;;9.70;8.85;;;;;;;11.73;51.98;101604.50;5102016;28;20027;-60
2023/04/20 11:12:06;;;;;;;9.70;8.77;;;;;;;11.41;52.29;101604.47;5100404;28;20378;-60
2023/04/20 11:14:33;;;;;;;9.45;8.50;;;;;;;11.05;53.03;101601.97;5092360;28;20505;-60
2023/04/20 11:16:59;;;;;;;9.65;8.85;;;;;;;10.87;53.63;101603.81;5090470;28;20024;-60
2023/04/20 11:19:26;;;;;;;9.77;8.77;;;;;;;10.90;53.95;101596.53;5091006;28;20016;-60
2023/04/20 11:21:52;;;;;;;10.85;9.85;;;;;;;11.00;55.77;101580.94;5104048;28;20039;-60
2023/04/20 11:24:21;;;;;;;12.43;9.55;;;;;;;11.30;53.57;101583.75;5104324;28;20038;-60